createdAt,value
2023-05-10T00:03:33.470Z,2.00
2023-05-10T00:08:36.596Z,2.17
2023-05-10T00:13:39.538Z,2.03
2023-05-10T00:18:42.777Z,1.88
2023-05-10T00:23:45.722Z,1.85
2023-05-10T00:28:48.913Z,2.08
2023-05-10T00:33:51.781Z,1.73
2023-05-10T00:38:55.351Z,1.63
2023-05-10T00:43:58.318Z,1.70
2023-05-10T00:49:01.616Z,1.60
2023-05-10T00:54:06.593Z,1.90
2023-05-10T00:59:10.180Z,1.70
2023-05-10T01:04:14.394Z,1.50
2023-05-10T01:09:19.294Z,1.95
2023-05-10T01:19:32.061Z,1.45
2023-05-10T01:24:59.471Z,2.13
2023-05-10T01:30:22.309Z,3.40
2023-05-10T01:35:38.148Z,4.43
2023-05-10T01:41:04.318Z,5.90
2023-05-10T01:46:12.256Z,4.10
2023-05-10T01:51:47.398Z,2.90
2023-05-10T01:56:58.538Z,2.35
2023-05-10T02:02:03.344Z,1.77
2023-05-10T02:07:07.932Z,2.03
2023-05-10T02:12:13.587Z,1.67
2023-05-10T02:17:37.542Z,1.80
2023-05-10T02:22:44.388Z,1.63
2023-05-10T02:27:48.956Z,1.75
2023-05-10T02:32:53.606Z,1.50
2023-05-10T02:37:59.816Z,1.85
2023-05-10T02:43:05.345Z,1.83
2023-05-10T02:48:26.869Z,1.77
2023-05-10T02:53:34.382Z,1.50
2023-05-10T02:58:37.454Z,1.52
2023-05-10T03:03:40.489Z,1.67
2023-05-10T03:08:45.832Z,1.58
2023-05-10T03:14:10.327Z,1.83
2023-05-10T03:19:33.637Z,1.98
2023-05-10T03:24:40.748Z,1.67
2023-05-10T03:29:47.643Z,1.70
2023-05-10T03:34:51.538Z,1.80
2023-05-10T03:39:54.487Z,1.80
2023-05-10T03:44:57.888Z,2.05
2023-05-10T03:50:01.438Z,1.70
2023-05-10T03:55:08.867Z,2.08
2023-05-10T04:05:17.864Z,2.58
2023-05-10T04:10:21.824Z,2.30
2023-05-10T04:15:25.023Z,2.42
2023-05-10T04:20:28.010Z,2.35
2023-05-10T04:25:31.402Z,1.92
2023-05-10T04:30:34.542Z,1.50
2023-05-10T04:35:37.618Z,1.70
2023-05-10T04:40:40.563Z,1.65
2023-05-10T04:46:02.377Z,1.60
2023-05-10T04:51:05.489Z,1.38
2023-05-10T04:56:08.792Z,2.15
2023-05-10T05:01:11.901Z,1.60
2023-05-10T05:06:15.016Z,1.30
2023-05-10T05:11:19.410Z,1.23
2023-05-10T05:16:22.755Z,1.30
2023-05-10T05:21:28.027Z,1.60
2023-05-10T05:26:31.381Z,1.23
2023-05-10T05:31:34.427Z,1.30
2023-05-10T05:36:41.555Z,1.30
2023-05-10T05:41:44.842Z,1.20
2023-05-10T05:46:47.839Z,1.58
2023-05-10T05:51:51.482Z,1.20
2023-05-10T05:57:01.785Z,1.30
2023-05-10T06:02:23.500Z,1.30
2023-05-10T06:07:27.000Z,1.45
2023-05-10T06:17:32.608Z,1.48
2023-05-10T06:22:35.959Z,1.40
2023-05-10T06:27:39.301Z,1.33
2023-05-10T06:32:45.134Z,1.30
2023-05-10T06:37:48.103Z,1.80
2023-05-10T06:42:51.277Z,1.60
2023-05-10T06:47:54.573Z,1.50
2023-05-10T06:52:57.780Z,1.38
2023-05-10T06:58:00.749Z,1.30
2023-05-10T07:03:03.888Z,1.17
2023-05-10T07:08:25.433Z,1.20
2023-05-10T07:13:28.409Z,1.45
2023-05-10T07:18:31.346Z,1.15
2023-05-10T07:23:34.861Z,1.38
2023-05-10T07:28:38.775Z,1.20
2023-05-10T07:33:41.879Z,1.40
2023-05-10T07:38:44.849Z,1.23
2023-05-10T07:43:47.964Z,1.10
2023-05-10T07:48:54.200Z,1.38
2023-05-10T07:53:58.310Z,1.58
2023-05-10T07:59:01.545Z,1.20
2023-05-10T08:04:05.477Z,1.65
2023-05-10T08:09:08.736Z,1.42
2023-05-10T08:14:11.844Z,1.00
2023-05-10T08:24:17.783Z,1.23
2023-05-10T08:34:23.631Z,1.30
2023-05-10T08:44:36.397Z,1.10
2023-05-10T08:49:40.108Z,1.10
2023-05-10T08:54:43.795Z,1.10
2023-05-10T08:59:47.958Z,1.20
2023-05-10T09:04:51.197Z,1.30
2023-05-10T09:09:55.546Z,1.50
2023-05-10T09:15:01.084Z,1.40
2023-05-10T09:20:05.643Z,1.40
2023-05-10T09:25:16.643Z,1.23
2023-05-10T09:30:28.165Z,1.20
2023-05-10T09:35:33.359Z,1.30
2023-05-10T09:40:36.380Z,1.00
2023-05-10T09:45:39.423Z,1.35
2023-05-10T09:51:01.918Z,1.13
2023-05-10T09:56:05.039Z,1.40
2023-05-10T10:01:16.199Z,1.60
2023-05-10T10:06:29.456Z,1.45
2023-05-10T10:11:34.000Z,1.40
2023-05-10T10:16:39.939Z,1.20
2023-05-10T10:21:50.900Z,1.30
2023-05-10T10:26:58.523Z,1.35
2023-05-10T10:32:31.572Z,1.50
2023-05-10T10:37:48.578Z,1.60
2023-05-10T10:42:51.506Z,1.70
2023-05-10T10:53:16.522Z,1.55
2023-05-10T10:58:35.524Z,1.05
2023-05-10T11:03:38.425Z,1.40
2023-05-10T11:13:51.736Z,1.20
2023-05-10T11:19:03.836Z,1.60
2023-05-10T11:24:15.098Z,1.40
2023-05-10T11:29:18.048Z,1.52
2023-05-10T11:39:33.104Z,1.23
2023-05-10T11:44:36.676Z,1.30
2023-05-10T11:49:39.833Z,1.35
2023-05-10T11:54:56.082Z,1.50
2023-05-10T11:59:59.322Z,1.60
2023-05-10T12:05:04.423Z,1.42
2023-05-10T12:10:11.461Z,1.45
2023-05-10T12:15:25.514Z,1.40
2023-05-10T12:20:29.246Z,1.90
2023-05-10T12:25:34.395Z,1.50
2023-05-10T12:30:37.912Z,1.50
2023-05-10T12:35:54.467Z,1.38
2023-05-10T12:41:05.015Z,1.42
2023-05-10T12:46:18.216Z,1.73
2023-05-10T12:51:23.400Z,1.38
2023-05-10T12:56:26.486Z,1.40
2023-05-10T13:01:29.602Z,1.30
2023-05-10T13:06:33.092Z,1.60
2023-05-10T13:11:36.643Z,1.45
2023-05-10T13:16:39.578Z,1.70
2023-05-10T13:21:42.556Z,1.90
2023-05-10T13:26:45.613Z,1.27
2023-05-10T13:31:48.631Z,1.73
2023-05-10T13:36:51.523Z,1.70
2023-05-10T13:41:55.849Z,1.80
2023-05-10T13:46:58.830Z,1.75
2023-05-10T13:52:08.031Z,1.60
2023-05-10T13:57:13.120Z,1.52
2023-05-10T14:02:16.170Z,2.08
2023-05-10T14:07:19.112Z,3.33
2023-05-10T14:17:25.088Z,1.50
2023-05-10T14:22:28.114Z,1.60
2023-05-10T14:27:31.628Z,1.30
2023-05-10T14:32:35.179Z,1.70
2023-05-10T14:37:38.679Z,1.42
2023-05-10T14:42:41.643Z,1.50
2023-05-10T14:47:44.545Z,1.95
2023-05-10T14:52:47.511Z,1.70
2023-05-10T14:57:51.812Z,2.90
2023-05-10T15:02:54.857Z,1.73
2023-05-10T15:07:58.172Z,1.65
2023-05-10T15:13:01.574Z,1.20
2023-05-10T15:18:04.658Z,2.38
2023-05-10T15:23:07.714Z,1.63
2023-05-10T15:28:11.019Z,3.08
2023-05-10T15:33:14.145Z,1.95
2023-05-10T15:38:17.531Z,1.40
2023-05-10T15:43:20.526Z,1.42
2023-05-10T15:48:42.765Z,1.65
2023-05-10T15:54:00.422Z,1.88
2023-05-10T16:04:11.718Z,2.10
2023-05-10T16:09:14.636Z,2.28
2023-05-10T16:14:17.852Z,2.40
2023-05-10T16:19:20.903Z,2.20
2023-05-10T16:24:42.727Z,1.70
2023-05-10T16:29:47.620Z,14.00
2023-05-10T16:35:09.729Z,21.42
2023-05-10T16:40:12.934Z,5.35
2023-05-10T16:50:19.898Z,2.17
2023-05-10T16:55:25.410Z,2.05
2023-05-10T17:00:29.555Z,1.35
2023-05-10T17:10:35.144Z,1.77
2023-05-10T17:15:39.524Z,2.10
2023-05-10T17:20:44.864Z,2.90
2023-05-10T17:25:47.836Z,1.58
2023-05-10T17:30:57.528Z,2.10
2023-05-10T17:36:00.385Z,2.22
2023-05-10T17:41:22.023Z,2.22
2023-05-10T17:46:25.265Z,2.38
2023-05-10T17:51:29.124Z,3.10
2023-05-10T17:56:32.180Z,5.78
2023-05-10T18:01:35.459Z,9.88
2023-05-10T18:06:39.313Z,5.78
2023-05-10T18:11:42.408Z,3.67
2023-05-10T18:16:45.774Z,3.13
2023-05-10T18:21:49.553Z,3.60
2023-05-10T18:26:52.921Z,3.80
2023-05-10T18:31:55.755Z,3.50
2023-05-10T18:37:17.382Z,3.50
2023-05-10T18:42:20.888Z,4.18
2023-05-10T18:47:43.196Z,3.22
2023-05-10T18:52:46.814Z,3.97
2023-05-10T18:57:49.708Z,4.10
2023-05-10T19:02:53.848Z,3.63
2023-05-10T19:07:57.255Z,3.45
2023-05-10T19:18:05.141Z,3.65
2023-05-10T19:23:10.279Z,3.33
2023-05-10T19:28:13.401Z,3.83
2023-05-10T19:33:18.602Z,3.20
2023-05-10T19:38:22.848Z,3.90
2023-05-10T19:43:26.826Z,3.50
2023-05-10T19:48:30.595Z,3.67
2023-05-10T19:53:33.781Z,3.88
2023-05-10T19:58:36.997Z,3.13
2023-05-10T20:03:39.963Z,4.40
2023-05-10T20:08:43.030Z,4.35
2023-05-10T20:13:46.129Z,3.88
2023-05-10T20:18:49.300Z,4.05
2023-05-10T20:23:52.696Z,4.10
2023-05-10T20:28:56.013Z,4.00
2023-05-10T20:33:58.997Z,5.45
2023-05-10T20:39:02.038Z,5.05
2023-05-10T20:44:06.218Z,5.07
2023-05-10T20:49:09.513Z,4.80
2023-05-10T20:54:12.546Z,6.20
2023-05-10T20:59:15.549Z,6.88
2023-05-10T21:04:37.153Z,6.88
2023-05-10T21:09:40.177Z,7.28
2023-05-10T21:14:44.515Z,7.75
2023-05-10T21:19:47.547Z,6.90
2023-05-10T21:24:50.783Z,8.80
2023-05-10T21:30:12.701Z,6.55
2023-05-10T21:35:16.182Z,9.68
2023-05-10T21:40:19.520Z,8.20
2023-05-10T21:45:23.240Z,6.20
2023-05-10T21:50:26.492Z,3.53
2023-05-10T21:55:29.651Z,3.75
2023-05-10T22:00:34.174Z,5.55
2023-05-10T22:05:37.602Z,5.07
2023-05-10T22:10:40.622Z,5.88
2023-05-10T22:15:44.537Z,6.97
2023-05-10T22:20:47.718Z,7.40
2023-05-10T22:25:50.748Z,6.07
2023-05-10T22:30:53.882Z,5.57
2023-05-10T22:35:56.810Z,6.65
2023-05-10T22:40:59.688Z,4.35
2023-05-10T22:46:02.692Z,5.50
2023-05-10T22:51:05.642Z,6.43
2023-05-10T22:56:08.689Z,6.32
2023-05-10T23:01:11.890Z,6.30
2023-05-10T23:06:14.970Z,6.30
2023-05-10T23:11:17.959Z,6.63
2023-05-10T23:16:21.484Z,6.13
2023-05-10T23:21:25.402Z,6.53
2023-05-10T23:31:31.456Z,5.93
2023-05-10T23:36:34.563Z,4.70
2023-05-10T23:41:37.648Z,4.30
2023-05-10T23:46:40.602Z,4.53
2023-05-10T23:51:43.677Z,3.88
2023-05-10T23:56:46.566Z,3.20
